Time;durP1;ratioP1;P1;durP2;ratioP2;P2;SDS_P1;SDS_P2;PMS_P1;PMS_P2;Temp;Humidity;BMP_temperature;BMP_pressure;BME280_temperature;BME280_humidity;BME280_pressure;Samples;Min_cycle;Max_cycle;Signal;HPM_P1;HPM_P2
2021/03/26 00:00:38;;;;;;;132.73;124.13;;;7.00;99.90;;;;;;5093217;28;20450;-83
2021/03/26 00:03:07;;;;;;;152.17;142.17;;;7.00;99.90;;;;;;5091778;28;20453;-84
2021/03/26 00:05:35;;;;;;;142.43;133.53;;;6.90;99.90;;;;;;5093089;28;20501;-83
2021/03/26 00:08:01;;;;;;;141.40;132.83;;;6.90;99.90;;;;;;5096400;28;20580;-82
2021/03/26 00:10:27;;;;;;;127.53;119.40;;;7.00;99.90;;;;;;5097076;28;20478;-85
2021/03/26 00:12:54;;;;;;;129.60;121.20;;;7.00;99.90;;;;;;5097033;28;20883;-83
2021/03/26 00:15:20;;;;;;;123.77;115.67;;;6.90;99.90;;;;;;5096878;28;20529;-84
2021/03/26 00:17:47;;;;;;;128.60;119.80;;;6.90;99.90;;;;;;5095624;28;20963;-83
2021/03/26 00:20:15;;;;;;;129.47;120.90;;;7.00;99.90;;;;;;5096896;28;20461;-82
2021/03/26 00:22:41;;;;;;;114.03;106.03;;;7.10;99.90;;;;;;5096832;28;20452;-85
2021/03/26 00:25:09;;;;;;;100.47;93.27;;;7.10;99.90;;;;;;5096690;28;20986;-82
2021/03/26 00:27:36;;;;;;;90.80;82.90;;;7.10;99.90;;;;;;5508106;22;20481;-81
2021/03/26 00:30:05;;;;;;;83.57;76.50;;;7.10;99.90;;;;;;5096532;28;20929;-81
2021/03/26 00:32:31;;;;;;;89.97;82.63;;;7.00;99.90;;;;;;5095619;28;20446;-82
2021/03/26 00:34:59;;;;;;;94.90;87.97;;;6.80;99.90;;;;;;5096553;28;20481;-83
2021/03/26 00:37:25;;;;;;;105.40;97.90;;;6.80;99.90;;;;;;5096331;28;20946;-81
2021/03/26 00:39:51;;;;;;;105.27;96.90;;;6.70;99.90;;;;;;5096492;28;20446;-81
2021/03/26 00:42:18;;;;;;;122.90;113.90;;;6.70;99.90;;;;;;5096451;28;20489;-82
2021/03/26 00:44:45;;;;;;;140.17;131.37;;;6.70;99.90;;;;;;5096348;28;20550;-82
2021/03/26 00:47:12;;;;;;;144.00;134.87;;;6.60;99.90;;;;;;5095144;28;20818;-81
2021/03/26 00:49:38;;;;;;;145.07;135.60;;;6.60;99.90;;;;;;5096232;28;20485;-83
2021/03/26 00:52:10;;;;;;;167.13;156.67;;;6.60;99.90;;;;;;5096275;28;20586;-81
2021/03/26 00:54:36;;;;;;;182.10;171.37;;;6.60;99.90;;;;;;5096171;28;20472;-83
2021/03/26 00:57:03;;;;;;;194.23;183.63;;;6.60;99.90;;;;;;5096037;28;20996;-83
2021/03/26 00:59:30;;;;;;;181.13;170.63;;;6.60;99.90;;;;;;5096145;28;20461;-81
2021/03/26 01:01:56;;;;;;;186.57;175.87;;;6.60;99.90;;;;;;5095538;28;20449;-80
2021/03/26 01:04:23;;;;;;;191.63;180.03;;;6.70;99.90;;;;;;5095428;28;20903;-81
2021/03/26 01:06:49;;;;;;;157.60;147.60;;;6.60;99.90;;;;;;5096022;28;20522;-82
2021/03/26 01:09:16;;;;;;;131.87;122.33;;;6.80;99.90;;;;;;5095772;28;20508;-84
2021/03/26 01:11:43;;;;;;;129.17;120.87;;;6.80;99.90;;;;;;5095896;28;20492;-82
2021/03/26 01:14:12;;;;;;;114.27;106.37;;;6.70;99.90;;;;;;5095887;28;20451;-81
2021/03/26 01:16:39;;;;;;;105.23;96.77;;;6.70;99.90;;;;;;5095764;28;20452;-83
2021/03/26 01:19:07;;;;;;;86.37;78.87;;;6.80;99.90;;;;;;5094238;28;20549;-81
2021/03/26 01:21:36;;;;;;;78.87;71.67;;;6.90;99.90;;;;;;5095862;28;20477;-81
2021/03/26 01:24:03;;;;;;;79.13;72.50;;;7.00;99.90;;;;;;5095565;28;20486;-82
2021/03/26 01:26:31;;;;;;;91.33;83.67;;;6.90;99.90;;;;;;5095584;28;20449;-81
2021/03/26 01:28:58;;;;;;;103.30;95.93;;;6.80;99.90;;;;;;5095255;28;20486;-81
2021/03/26 01:31:25;;;;;;;88.77;80.57;;;6.60;99.90;;;;;;5095546;28;20504;-81
2021/03/26 01:33:52;;;;;;;82.07;74.77;;;6.70;99.90;;;;;;5094208;28;20491;-81
2021/03/26 01:36:18;;;;;;;70.47;64.37;;;6.60;99.90;;;;;;5095523;28;20524;-84
2021/03/26 01:38:45;;;;;;;79.53;72.73;;;6.50;99.90;;;;;;5095284;28;20550;-83
2021/03/26 01:41:16;;;;;;;77.20;70.93;;;6.50;99.90;;;;;;5095257;28;20540;-84
2021/03/26 01:43:44;;;;;;;88.87;81.83;;;6.30;99.90;;;;;;5095170;28;20451;-82
2021/03/26 01:46:12;;;;;;;93.07;86.23;;;6.30;99.90;;;;;;5095082;28;20817;-84
2021/03/26 01:48:42;;;;;;;103.00;95.40;;;6.20;99.90;;;;;;5093840;28;20483;-83
2021/03/26 01:51:13;;;;;;;122.43;114.67;;;6.20;99.90;;;;;;5096183;28;20818;-82
2021/03/26 01:53:39;;;;;;;108.63;101.33;;;6.20;99.90;;;;;;5095119;28;20498;-80
2021/03/26 01:56:06;;;;;;;110.83;102.53;;;6.30;99.90;;;;;;5095020;28;20450;-82
2021/03/26 01:58:38;;;;;;;103.33;95.17;;;6.40;99.90;;;;;;5094899;28;20530;-83
2021/03/26 02:01:09;;;;;;;107.33;99.33;;;6.30;99.90;;;;;;5094897;28;20480;-82
2021/03/26 02:03:40;;;;;;;122.60;114.30;;;6.20;99.90;;;;;;5093586;28;20579;-83
2021/03/26 02:06:11;;;;;;;139.27;129.90;;;6.20;99.90;;;;;;5094770;28;20441;-83
2021/03/26 02:08:39;;;;;;;150.93;141.70;;;6.10;99.90;;;;;;5094692;28;20576;-83
2021/03/26 02:11:12;;;;;;;156.63;146.17;;;5.90;99.90;;;;;;5094663;28;20457;-82
2021/03/26 02:13:39;;;;;;;160.33;150.27;;;5.80;99.90;;;;;;5094910;28;20556;-82
2021/03/26 02:16:09;;;;;;;202.40;190.83;;;5.80;99.90;;;;;;5094664;28;20489;-82
2021/03/26 02:18:40;;;;;;;197.90;186.80;;;5.90;99.90;;;;;;5093388;28;20490;-81
2021/03/26 02:21:10;;;;;;;186.10;175.03;;;5.70;99.90;;;;;;5094723;28;20488;-81
2021/03/26 02:23:39;;;;;;;178.27;167.43;;;5.80;99.90;;;;;;5094693;28;20553;-83
2021/03/26 02:26:13;;;;;;;188.37;177.40;;;5.70;99.90;;;;;;5094452;28;20940;-83
2021/03/26 02:28:39;;;;;;;185.87;174.90;;;5.70;99.90;;;;;;5093798;28;20579;-83
2021/03/26 02:31:06;;;;;;;193.80;182.50;;;5.90;99.90;;;;;;5094281;28;20865;-82
2021/03/26 02:33:33;;;;;;;206.30;194.57;;;5.90;99.90;;;;;;5093197;28;20450;-80
2021/03/26 02:36:34;;;;;;;212.17;200.23;;;5.90;99.90;;;;;;5094274;28;20552;-82
2021/03/26 02:39:04;;;;;;;250.87;236.97;;;5.70;99.90;;;;;;5094213;28;20963;-82
2021/03/26 02:41:34;;;;;;;243.73;230.33;;;5.70;99.90;;;;;;5094307;28;20496;-81
2021/03/26 02:44:05;;;;;;;219.10;205.97;;;5.80;99.90;;;;;;5094159;28;20454;-84
2021/03/26 02:46:36;;;;;;;198.83;186.37;;;5.80;99.90;;;;;;5093927;28;21020;-81
2021/03/26 02:49:09;;;;;;;165.83;155.60;;;5.70;99.90;;;;;;5093587;28;20573;-83
2021/03/26 02:51:40;;;;;;;194.63;182.73;;;5.50;99.90;;;;;;5093996;28;20537;-82
2021/03/26 02:54:15;;;;;;;191.77;180.53;;;5.30;99.90;;;;;;5093896;28;20531;-84
2021/03/26 02:56:48;;;;;;;174.60;163.83;;;5.50;99.90;;;;;;5094584;28;20445;-86
2021/03/26 02:59:20;;;;;;;147.57;138.00;;;5.50;99.90;;;;;;5093672;28;20475;-85
2021/03/26 03:01:50;;;;;;;141.10;131.30;;;5.40;99.90;;;;;;5093925;28;20928;-86
2021/03/26 03:04:20;;;;;;;152.70;142.73;;;5.40;99.90;;;;;;5092892;28;20515;-85
2021/03/26 03:06:52;;;;;;;142.13;132.77;;;5.50;99.90;;;;;;5093734;28;20453;-85
2021/03/26 03:09:21;;;;;;;144.53;134.47;;;5.70;99.90;;;;;;5093619;28;20520;-85
2021/03/26 03:14:28;;;;;;;132.80;122.40;;;5.70;99.90;;;;;;5602504;22;20473;-84
2021/03/26 03:17:00;;;;;;;143.90;133.73;;;5.60;99.90;;;;;;5092982;28;20480;-80
2021/03/26 03:19:35;;;;;;;143.97;134.80;;;5.50;99.90;;;;;;5094364;28;20542;-83
2021/03/26 03:22:04;;;;;;;123.37;114.47;;;5.60;99.90;;;;;;5093703;28;20536;-84
2021/03/26 03:24:36;;;;;;;135.73;125.67;;;5.70;99.90;;;;;;5093562;28;20503;-83
2021/03/26 03:27:15;;;;;;;155.33;145.47;;;5.70;99.90;;;;;;5093660;28;20533;-82
2021/03/26 03:29:48;;;;;;;127.00;118.20;;;5.90;99.90;;;;;;5093354;28;20545;-82
2021/03/26 03:32:20;;;;;;;128.60;118.67;;;5.80;99.90;;;;;;5092168;28;20561;-83
2021/03/26 03:34:53;;;;;;;123.43;112.73;;;5.70;99.90;;;;;;5093149;28;20540;-84
2021/03/26 03:37:29;;;;;;;130.47;119.87;;;5.70;99.90;;;;;;5093072;28;20541;-84
2021/03/26 03:40:10;;;;;;;142.73;132.73;;;5.60;99.90;;;;;;5093125;28;21007;-81
2021/03/26 03:42:45;;;;;;;145.17;134.30;;;5.50;99.90;;;;;;5422340;22;20485;-84
2021/03/26 03:45:17;;;;;;;150.87;140.20;;;5.50;99.90;;;;;;5092712;28;20453;-82
2021/03/26 03:47:48;;;;;;;161.23;150.23;;;5.50;99.90;;;;;;5091966;28;20469;-84
2021/03/26 03:50:20;;;;;;;164.33;152.67;;;5.50;99.90;;;;;;5092932;28;20446;-84
2021/03/26 03:52:54;;;;;;;175.03;162.47;;;5.60;99.90;;;;;;5093184;28;20453;-82
2021/03/26 03:55:30;;;;;;;194.23;181.23;;;5.40;99.90;;;;;;5093324;28;20542;-83
2021/03/26 03:58:03;;;;;;;198.63;186.03;;;5.30;99.90;;;;;;5092980;28;20464;-84
2021/03/26 04:00:33;;;;;;;211.30;198.93;;;5.10;99.90;;;;;;5092968;28;21022;-82
2021/03/26 04:03:06;;;;;;;228.63;215.07;;;5.20;99.90;;;;;;5091657;28;20473;-82
2021/03/26 04:05:37;;;;;;;215.73;202.40;;;5.10;99.90;;;;;;5092896;28;20454;-85
2021/03/26 04:08:07;;;;;;;209.83;196.53;;;4.80;99.90;;;;;;5092694;28;20477;-83
2021/03/26 04:10:38;;;;;;;239.30;223.33;;;4.50;99.90;;;;;;5092848;28;20458;-83
2021/03/26 04:13:08;;;;;;;238.83;223.73;;;4.40;99.90;;;;;;5094841;28;20906;-85
2021/03/26 04:15:49;;;;;;;256.60;239.87;;;4.20;99.90;;;;;;5093055;28;20460;-85
2021/03/26 04:18:20;;;;;;;290.73;272.57;;;4.30;99.90;;;;;;5091342;28;20459;-83
2021/03/26 04:20:50;;;;;;;295.60;277.47;;;4.30;99.90;;;;;;5092608;28;20485;-82
2021/03/26 04:23:22;;;;;;;313.27;293.57;;;4.30;99.90;;;;;;5094682;28;20917;-82
2021/03/26 04:26:01;;;;;;;338.43;317.87;;;4.30;99.90;;;;;;5092619;28;20479;-85
2021/03/26 04:28:31;;;;;;;334.67;315.37;;;4.50;99.90;;;;;;5092531;28;20480;-85
2021/03/26 04:31:01;;;;;;;356.30;335.00;;;4.80;99.90;;;;;;5092637;28;20587;-83
2021/03/26 04:33:28;;;;;;;360.50;339.53;;;4.90;99.90;;;;;;5091676;28;20545;-83
2021/03/26 04:35:57;;;;;;;360.57;337.53;;;4.90;99.90;;;;;;5092679;28;20816;-84
2021/03/26 04:38:27;;;;;;;359.07;337.83;;;4.80;99.90;;;;;;5092626;28;20464;-84
2021/03/26 04:41:00;;;;;;;363.40;339.60;;;4.80;99.90;;;;;;5092670;28;20847;-82
2021/03/26 04:43:34;;;;;;;347.40;324.70;;;4.80;99.90;;;;;;5092465;28;20513;-82
2021/03/26 04:46:06;;;;;;;359.67;337.80;;;4.80;99.90;;;;;;5092560;28;20481;-83
2021/03/26 04:48:35;;;;;;;355.70;332.57;;;4.80;99.90;;;;;;5091165;28;20481;-83
2021/03/26 04:51:08;;;;;;;364.90;343.17;;;4.90;99.90;;;;;;5092484;28;20940;-82
2021/03/26 04:53:41;;;;;;;365.90;342.80;;;5.10;99.90;;;;;;5095323;28;20489;-85
2021/03/26 04:56:13;;;;;;;353.83;332.33;;;5.20;99.90;;;;;;5096001;28;20455;-82
2021/03/26 04:58:43;;;;;;;349.73;328.17;;;5.30;99.90;;;;;;5096133;28;20983;-82
2021/03/26 05:01:13;;;;;;;340.90;320.10;;;5.30;99.90;;;;;;5096047;28;20525;-82
2021/03/26 05:03:43;;;;;;;322.73;304.07;;;5.20;99.90;;;;;;5094882;28;20511;-84
2021/03/26 05:06:14;;;;;;;303.17;284.47;;;5.30;99.90;;;;;;5095871;28;20461;-81
2021/03/26 05:08:43;;;;;;;289.97;272.17;;;5.30;99.90;;;;;;5095841;28;20484;-84
2021/03/26 05:11:13;;;;;;;269.10;253.47;;;5.10;99.90;;;;;;5095965;28;20996;-84
2021/03/26 05:13:42;;;;;;;254.40;238.77;;;5.30;99.90;;;;;;5095840;28;20507;-83
2021/03/26 05:16:13;;;;;;;238.03;223.53;;;5.20;99.90;;;;;;5095944;28;20532;-84
2021/03/26 05:18:45;;;;;;;230.80;216.80;;;5.20;99.90;;;;;;5094665;28;20493;-81
2021/03/26 05:21:16;;;;;;;253.57;238.27;;;5.20;99.90;;;;;;5096043;28;20510;-83
2021/03/26 05:23:47;;;;;;;227.53;212.80;;;5.20;99.90;;;;;;5095945;28;20544;-84
2021/03/26 05:26:15;;;;;;;209.93;195.53;;;5.00;99.90;;;;;;5095724;28;20542;-84
2021/03/26 05:28:43;;;;;;;239.07;223.80;;;4.70;99.90;;;;;;5095533;28;20618;-84
2021/03/26 05:31:17;;;;;;;268.37;250.97;;;4.60;99.90;;;;;;5095653;28;20995;-86
2021/03/26 05:33:47;;;;;;;261.90;245.40;;;4.50;99.90;;;;;;5094209;28;20550;-82
2021/03/26 05:36:19;;;;;;;274.00;257.17;;;4.50;99.90;;;;;;5095488;28;20460;-83
2021/03/26 05:38:51;;;;;;;277.70;259.20;;;4.40;99.90;;;;;;5095408;28;20460;-84
2021/03/26 05:41:53;;;;;;;290.57;273.07;;;4.40;99.90;;;;;;5095623;28;20541;-83
2021/03/26 05:44:33;;;;;;;329.97;308.77;;;4.40;99.90;;;;;;5097497;28;20449;-85
2021/03/26 05:47:16;;;;;;;316.53;295.57;;;4.50;99.90;;;;;;5095947;28;20522;-84
2021/03/26 05:49:54;;;;;;;322.60;301.73;;;4.60;99.90;;;;;;5097210;28;20481;-82
2021/03/26 05:52:39;;;;;;;311.63;292.37;;;4.60;99.90;;;;;;5096597;28;20539;-85
2021/03/26 05:57:51;;;;;;;303.97;285.57;;;4.50;99.90;;;;;;5229352;22;20996;-84
2021/03/26 06:01:20;;;;;;;305.40;286.47;;;4.50;99.90;;;;;;5074805;28;20454;-85
2021/03/26 06:04:12;;;;;;;284.37;267.37;;;4.60;99.90;;;;;;5072534;28;20474;-83
2021/03/26 06:07:11;;;;;;;298.10;279.37;;;4.60;99.90;;;;;;5074545;28;20489;-83
2021/03/26 06:10:22;;;;;;;306.93;287.77;;;4.60;99.90;;;;;;5074524;28;20531;-85
2021/03/26 06:13:21;;;;;;;323.37;302.23;;;4.80;99.90;;;;;;5038907;28;20464;-83
2021/03/26 06:16:28;;;;;;;331.20;310.80;;;4.80;99.90;;;;;;5071206;28;20462;-82
2021/03/26 06:19:40;;;;;;;323.97;303.67;;;4.90;99.90;;;;;;5073239;28;20454;-84
2021/03/26 06:23:03;;;;;;;342.33;320.97;;;5.00;99.90;;;;;;5074655;28;20455;-84
2021/03/26 06:25:55;;;;;;;334.47;313.57;;;5.00;99.90;;;;;;5074006;28;20464;-84
2021/03/26 06:28:37;;;;;;;350.00;326.83;;;5.10;99.90;;;;;;5073926;28;20475;-82
2021/03/26 06:31:38;;;;;;;346.20;324.07;;;5.20;99.90;;;;;;5074264;28;20451;-84
2021/03/26 06:34:27;;;;;;;344.57;323.07;;;5.20;99.90;;;;;;5065108;28;20457;-83
2021/03/26 06:37:22;;;;;;;353.47;330.67;;;5.30;99.90;;;;;;5073939;28;20522;-83
2021/03/26 06:40:17;;;;;;;357.63;335.23;;;5.40;99.90;;;;;;5073941;28;20459;-83
2021/03/26 06:43:02;;;;;;;383.53;359.73;;;5.50;99.90;;;;;;5073866;28;20983;-83
2021/03/26 06:46:19;;;;;;;400.97;376.27;;;5.70;99.90;;;;;;5073937;28;20450;-83
2021/03/26 06:48:58;;;;;;;391.97;367.67;;;5.90;99.90;;;;;;5040252;28;20565;-83
2021/03/26 06:51:51;;;;;;;396.17;371.30;;;6.00;99.90;;;;;;5073893;28;20482;-83
2021/03/26 06:54:59;;;;;;;396.57;372.67;;;6.30;99.90;;;;;;5073481;28;20516;-83
2021/03/26 06:57:52;;;;;;;408.37;385.10;;;6.40;99.90;;;;;;5073568;28;20475;-83
2021/03/26 07:00:49;;;;;;;368.07;346.17;;;6.70;99.90;;;;;;5073550;28;20867;-81
2021/03/26 07:03:34;;;;;;;301.07;282.37;;;6.90;99.90;;;;;;5072374;28;20474;-82
2021/03/26 07:06:42;;;;;;;260.83;244.93;;;7.30;99.90;;;;;;5073637;28;20808;-82
2021/03/26 07:09:24;;;;;;;246.57;230.83;;;7.50;99.90;;;;;;5073318;28;20489;-82
2021/03/26 07:12:20;;;;;;;185.43;172.57;;;7.70;99.90;;;;;;5073416;28;20534;-82
2021/03/26 07:15:00;;;;;;;166.97;155.13;;;7.90;99.90;;;;;;5073155;28;20547;-83
2021/03/26 07:17:47;;;;;;;143.57;132.97;;;8.00;99.90;;;;;;5068867;28;20458;-83
2021/03/26 07:20:37;;;;;;;114.67;104.37;;;8.10;99.90;;;;;;5072010;28;20452;-83
2021/03/26 07:23:33;;;;;;;94.37;85.17;;;8.30;99.90;;;;;;5072631;28;20453;-83
2021/03/26 07:26:26;;;;;;;103.97;94.10;;;8.40;99.90;;;;;;5072267;28;20454;-83
2021/03/26 07:29:28;;;;;;;117.57;107.67;;;8.50;99.90;;;;;;5072380;28;20584;-83
2021/03/26 07:32:05;;;;;;;92.53;83.80;;;8.60;99.90;;;;;;5071384;28;20897;-83
2021/03/26 07:34:44;;;;;;;75.73;67.53;;;8.70;99.90;;;;;;5071683;28;20450;-83
2021/03/26 07:37:20;;;;;;;61.50;43.80;;;8.90;99.90;;;;;;5072331;28;20475;-83
2021/03/26 07:39:52;;;;;;;58.40;41.97;;;9.00;99.90;;;;;;5071842;28;20995;-82
2021/03/26 07:42:45;;;;;;;58.13;37.47;;;9.00;99.90;;;;;;5073905;28;20523;-82
2021/03/26 07:45:43;;;;;;;55.17;33.40;;;9.30;99.90;;;;;;5072049;28;20458;-83
2021/03/26 07:48:39;;;;;;;60.07;38.20;;;9.30;99.90;;;;;;5067891;28;20477;-84
2021/03/26 07:51:14;;;;;;;56.63;32.67;;;9.40;99.90;;;;;;5070062;28;20508;-83
2021/03/26 07:53:55;;;;;;;61.03;34.60;;;9.60;99.80;;;;;;5069746;28;20507;-83
2021/03/26 07:56:36;;;;;;;73.63;42.53;;;9.60;96.40;;;;;;5069686;28;20478;-83
2021/03/26 07:59:39;;;;;;;69.30;37.90;;;9.80;99.90;;;;;;5070283;28;20547;-84
2021/03/26 08:02:29;;;;;;;48.83;27.77;;;9.90;95.20;;;;;;5067990;28;21401;-83
2021/03/26 08:05:02;;;;;;;55.20;31.17;;;9.90;90.40;;;;;;5070425;28;20461;-83
2021/03/26 08:08:02;;;;;;;58.23;30.00;;;10.00;87.70;;;;;;5069959;28;20581;-83
2021/03/26 08:10:41;;;;;;;47.57;27.33;;;10.10;90.20;;;;;;5069893;28;20461;-83
2021/03/26 08:13:48;;;;;;;53.27;30.10;;;10.20;80.20;;;;;;5071960;28;20530;-83
2021/03/26 08:16:44;;;;;;;42.90;28.03;;;10.30;87.50;;;;;;5069752;28;20500;-84
2021/03/26 08:19:18;;;;;;;49.67;27.73;;;10.50;77.40;;;;;;5068245;28;20516;-84
2021/03/26 08:21:55;;;;;;;45.77;25.80;;;10.60;70.50;;;;;;5071116;28;20482;-84
2021/03/26 08:24:52;;;;;;;48.07;28.03;;;10.70;69.10;;;;;;5067300;28;20467;-84
2021/03/26 08:27:26;;;;;;;44.00;24.77;;;11.00;67.30;;;;;;5071315;28;20802;-84
2021/03/26 08:30:06;;;;;;;49.70;28.67;;;11.10;63.20;;;;;;5073932;28;20485;-84
2021/03/26 08:32:57;;;;;;;42.87;26.50;;;11.30;60.10;;;;;;5072518;28;20458;-82
2021/03/26 08:35:37;;;;;;;47.37;22.03;;;11.50;56.80;;;;;;5029903;28;20451;-83
2021/03/26 08:38:30;;;;;;;42.10;24.60;;;11.50;52.00;;;;;;5074230;28;20457;-82
2021/03/26 08:41:01;;;;;;;39.57;19.90;;;11.70;47.30;;;;;;5075728;28;20464;-83
2021/03/26 08:43:37;;;;;;;40.07;23.10;;;11.70;45.50;;;;;;5076034;28;20544;-82
2021/03/26 08:46:35;;;;;;;36.77;17.77;;;11.90;44.80;;;;;;5076168;28;20452;-84
2021/03/26 08:49:14;;;;;;;38.80;22.20;;;12.00;40.50;;;;;;5051590;28;20516;-82
2021/03/26 08:52:06;;;;;;;37.90;22.00;;;12.10;39.40;;;;;;5076039;28;20552;-82
2021/03/26 08:54:49;;;;;;;36.43;18.50;;;12.30;37.20;;;;;;5067196;28;20460;-82
2021/03/26 08:57:23;;;;;;;33.03;19.47;;;12.40;33.60;;;;;;5075730;28;20477;-82
2021/03/26 09:00:06;;;;;;;37.40;20.27;;;12.50;30.20;;;;;;5075900;28;20459;-82
2021/03/26 09:03:06;;;;;;;34.90;20.10;;;12.90;32.50;;;;;;5074385;28;20566;-82
2021/03/26 09:05:56;;;;;;;31.90;15.43;;;13.00;29.10;;;;;;5075830;28;20543;-82
2021/03/26 09:08:43;;;;;;;33.73;17.77;;;13.20;29.30;;;;;;5075403;28;20483;-82
2021/03/26 09:11:49;;;;;;;39.80;17.70;;;13.10;24.50;;;;;;5075686;28;20468;-83
2021/03/26 09:14:48;;;;;;;30.57;14.37;;;13.10;23.60;;;;;;5075535;28;20475;-83
2021/03/26 09:17:44;;;;;;;37.60;19.17;;;13.30;24.50;;;;;;5074248;28;20831;-84
2021/03/26 09:24:07;;;;;;;35.23;18.70;;;13.60;22.40;;;;;;5075459;28;20956;-84
2021/03/26 09:26:57;;;;;;;35.27;16.83;;;13.70;20.70;;;;;;5075306;28;20944;-83
2021/03/26 09:29:43;;;;;;;35.10;16.40;;;13.70;19.90;;;;;;5075019;28;20490;-84
2021/03/26 09:32:17;;;;;;;33.57;16.30;;;14.10;19.70;;;;;;5074077;28;21188;-83
2021/03/26 09:34:49;;;;;;;34.77;18.53;;;14.30;17.40;;;;;;5075172;28;20921;-84
2021/03/26 09:37:35;;;;;;;30.57;15.27;;;14.50;17.00;;;;;;5039718;28;20447;-83
2021/03/26 09:40:21;;;;;;;35.50;16.83;;;14.80;15.70;;;;;;5074877;28;20987;-84
2021/03/26 09:42:55;;;;;;;32.90;16.77;;;15.30;14.70;;;;;;5074999;28;20469;-84
2021/03/26 09:45:38;;;;;;;34.20;14.57;;;15.50;11.40;;;;;;5074911;28;20466;-84
2021/03/26 09:48:50;;;;;;;33.33;14.87;;;15.40;8.40;;;;;;5073471;28;20450;-83
2021/03/26 09:51:43;;;;;;;31.03;14.10;;;15.20;8.10;;;;;;5049727;28;20457;-84
2021/03/26 09:54:22;;;;;;;32.50;12.57;;;15.50;7.30;;;;;;5072040;28;21026;-84
2021/03/26 09:57:14;;;;;;;33.80;14.00;;;15.70;8.70;;;;;;5074873;28;20531;-84
2021/03/26 09:59:49;;;;;;;30.70;12.00;;;15.60;6.60;;;;;;5074780;28;20972;-83
2021/03/26 10:02:37;;;;;;;30.30;12.90;;;16.00;4.60;;;;;;5073579;28;20457;-83
2021/03/26 10:05:12;;;;;;;28.30;13.07;;;16.20;4.20;;;;;;5074603;28;20573;-83
2021/03/26 10:07:47;;;;;;;32.27;12.63;;;15.50;5.50;;;;;;5074579;28;20455;-83
2021/03/26 10:13:12;;;;;;;36.57;14.17;;;15.90;1.60;;;;;;5074430;28;20469;-83
2021/03/26 10:15:42;;;;;;;40.33;13.30;;;16.00;3.30;;;;;;5074288;28;20446;-83
2021/03/26 10:18:15;;;;;;;32.07;13.77;;;16.00;4.00;;;;;;5073200;28;21295;-82
2021/03/26 10:20:49;;;;;;;37.97;11.50;;;15.70;3.70;;;;;;5074185;28;20545;-83
2021/03/26 10:23:29;;;;;;;25.17;9.10;;;15.80;1.50;;;;;;5074322;28;20451;-83
2021/03/26 10:26:07;;;;;;;25.60;8.30;;;15.90;1.60;;;;;;5074243;28;20453;-83
2021/03/26 10:29:12;;;;;;;25.57;8.03;;;15.70;1.50;;;;;;5074263;28;20461;-83
2021/03/26 10:31:42;;;;;;;21.17;7.57;;;15.90;1.60;;;;;;5074187;28;20458;-83
2021/03/26 10:34:11;;;;;;;28.13;7.90;;;16.00;2.90;;;;;;5072678;28;20639;-83
2021/03/26 10:36:46;;;;;;;26.50;8.53;;;15.50;1.00;;;;;;5074009;28;20957;-83
2021/03/26 10:39:16;;;;;;;24.63;7.60;;;15.20;1.00;;;;;;5073932;28;21013;-83
2021/03/26 10:42:09;;;;;;;23.20;6.90;;;15.40;1.20;;;;;;5073837;28;21013;-84
2021/03/26 10:45:04;;;;;;;25.50;7.33;;;16.20;1.80;;;;;;5073898;28;20465;-84
2021/03/26 10:47:55;;;;;;;30.43;6.10;;;17.30;1.00;;;;;;5072146;28;20462;-84
2021/03/26 10:50:39;;;;;;;25.47;6.90;;;17.80;1.00;;;;;;5067062;28;20478;-83
2021/03/26 10:53:10;;;;;;;26.10;7.33;;;19.00;1.00;;;;;;5073585;28;20450;-84
2021/03/26 10:55:45;;;;;;;28.20;7.50;;;20.10;1.00;;;;;;5073554;28;20930;-83
2021/03/26 10:58:27;;;;;;;32.87;8.43;;;19.70;1.00;;;;;;5073414;28;20458;-85
2021/03/26 11:01:21;;;;;;;33.57;8.70;;;19.30;1.00;;;;;;5073406;28;20470;-85
2021/03/26 11:03:58;;;;;;;32.27;8.50;;;18.60;1.00;;;;;;5072303;28;20462;-84
2021/03/26 11:06:31;;;;;;;30.60;8.77;;;18.20;1.00;;;;;;5073227;28;20457;-83
2021/03/26 11:09:05;;;;;;;33.57;8.37;;;17.40;1.00;;;;;;5073201;28;20536;-85
2021/03/26 11:11:39;;;;;;;31.23;8.43;;;16.60;1.00;;;;;;5073403;28;20474;-83
2021/03/26 11:14:31;;;;;;;29.23;8.07;;;16.30;1.00;;;;;;5073240;28;20454;-82
2021/03/26 11:17:29;;;;;;;36.30;8.40;;;16.10;1.00;;;;;;5072218;28;20541;-81
2021/03/26 11:20:33;;;;;;;26.98;7.32;;;15.90;1.00;;;;;;5072791;28;20499;-84
2021/03/26 11:23:05;;;;;;;24.63;7.27;;;15.90;1.00;;;;;;5073280;28;20262;-83
2021/03/26 11:25:36;;;;;;;21.70;7.13;;;16.30;1.00;;;;;;5073160;28;20466;-83
2021/03/26 11:28:12;;;;;;;24.00;7.77;;;16.30;1.00;;;;;;5068833;28;20467;-83
2021/03/26 11:30:46;;;;;;;29.07;7.47;;;16.40;1.00;;;;;;5071701;28;20521;-83
2021/03/26 11:33:38;;;;;;;26.00;7.80;;;16.80;1.00;;;;;;5070157;28;20482;-83
2021/03/26 11:36:35;;;;;;;25.83;8.27;;;16.90;1.00;;;;;;5071338;28;20446;-83
2021/03/26 11:39:07;;;;;;;28.07;7.23;;;16.80;1.00;;;;;;5071310;28;20553;-82
2021/03/26 11:41:38;;;;;;;31.43;7.50;;;16.70;1.00;;;;;;5071249;28;20542;-83
2021/03/26 11:44:07;;;;;;;30.30;8.40;;;16.50;1.00;;;;;;5071342;28;20454;-84
2021/03/26 11:46:40;;;;;;;26.83;8.50;;;16.80;1.00;;;;;;5071273;28;20507;-82
2021/03/26 11:49:16;;;;;;;25.40;8.23;;;16.50;1.00;;;;;;5069760;28;20569;-82
2021/03/26 11:51:50;;;;;;;26.97;8.20;;;16.40;1.00;;;;;;5071305;28;20529;-83
2021/03/26 11:55:04;;;;;;;32.13;8.80;;;16.80;1.00;;;;;;5071343;28;20462;-85
2021/03/26 11:57:53;;;;;;;26.40;7.70;;;16.60;1.00;;;;;;5070886;28;20482;-84
2021/03/26 12:01:01;;;;;;;;;;;;;;;;;;;;;
2021/03/26 12:07:23;;;;;;;26.17;8.83;;;17.60;1.00;;;;;;4974639;28;20521;-85
2021/03/26 12:10:18;;;;;;;24.07;7.00;;;17.00;1.00;;;;;;4974256;28;20485;-85
2021/03/26 12:13:35;;;;;;;;;;;;;;;;;;;;;
2021/03/26 12:16:21;;;;;;;31.30;8.03;;;17.50;1.00;;;;;;4972986;28;20490;-84
2021/03/26 12:19:20;;;;;;;27.53;7.50;;;17.60;1.00;;;;;;4915367;29;20457;-84
2021/03/26 12:22:09;;;;;;;31.37;7.80;;;17.50;1.00;;;;;;5009759;28;20487;-84
2021/03/26 12:28:22;;;;;;;;;;;;;;;;;;;;;
2021/03/26 12:31:27;;;;;;;;;;;;;;;;;;;;;
2021/03/26 12:37:25;;;;;;;25.73;7.07;;;18.20;1.00;;;;;;4956136;28;20452;-85
2021/03/26 12:47:03;;;;;;;28.70;7.40;;;18.20;1.00;;;;;;5053524;28;20837;-85
2021/03/26 12:50:07;;;;;;;;;;;;;;;;;;;;;
2021/03/26 12:52:55;;;;;;;34.97;7.77;;;20.10;1.00;;;;;;5053455;28;20438;-85
2021/03/26 12:55:50;;;;;;;24.80;6.20;;;20.00;1.00;;;;;;5071030;28;20457;-85
2021/03/26 13:02:00;;;;;;;26.30;6.07;;;19.60;1.00;;;;;;5064855;28;20461;-85
2021/03/26 13:05:03;;;;;;;;;;;;;;;;;;;;;
2021/03/26 13:07:43;;;;;;;28.33;5.40;;;18.50;1.00;;;;;;5007531;28;20449;-84
2021/03/26 13:10:39;;;;;;;28.10;5.53;;;18.40;1.00;;;;;;5075730;28;20478;-86
2021/03/26 13:13:27;;;;;;;25.13;5.60;;;19.00;1.00;;;;;;5075228;28;20948;-84
2021/03/26 13:16:26;;;;;;;24.53;5.40;;;17.90;1.00;;;;;;5075555;28;20587;-84
2021/03/26 13:18:55;;;;;;;21.53;4.43;;;18.80;1.00;;;;;;5073668;28;20458;-84
2021/03/26 13:21:50;;;;;;;23.20;4.60;;;19.80;1.00;;;;;;5075580;28;20925;-83
2021/03/26 13:24:32;;;;;;;27.47;4.80;;;19.40;1.00;;;;;;5075500;28;20816;-84
2021/03/26 13:27:36;;;;;;;24.70;4.83;;;19.50;1.00;;;;;;5075396;28;20458;-84
2021/03/26 13:30:14;;;;;;;23.37;3.50;;;19.40;1.00;;;;;;5075535;28;20496;-85
2021/03/26 13:33:08;;;;;;;30.00;4.00;;;19.10;1.00;;;;;;5074222;28;20565;-84
2021/03/26 13:35:39;;;;;;;24.93;3.43;;;18.50;1.00;;;;;;5075084;28;20465;-84
2021/03/26 13:38:21;;;;;;;21.13;2.93;;;19.00;1.00;;;;;;5075068;28;20481;-83
2021/03/26 13:41:06;;;;;;;22.90;3.77;;;19.80;1.00;;;;;;5075281;28;20454;-83
2021/03/26 13:43:39;;;;;;;23.67;3.23;;;19.30;1.00;;;;;;5074983;28;20450;-82
2021/03/26 13:46:19;;;;;;;31.37;3.60;;;18.90;1.00;;;;;;5075071;28;20482;-83
2021/03/26 13:48:48;;;;;;;25.87;3.83;;;18.80;1.00;;;;;;5069109;28;20505;-83
2021/03/26 13:51:39;;;;;;;25.37;3.57;;;18.10;1.00;;;;;;5073888;28;20992;-83
2021/03/26 13:54:32;;;;;;;22.63;3.10;;;17.50;1.00;;;;;;5073279;28;20457;-83
2021/03/26 13:57:15;;;;;;;19.67;3.50;;;18.00;1.00;;;;;;5084148;28;20564;-84
2021/03/26 14:00:01;;;;;;;20.30;3.50;;;18.10;1.00;;;;;;5094212;28;20959;-84
2021/03/26 14:03:01;;;;;;;21.50;4.00;;;18.50;1.00;;;;;;5092270;28;20794;-83
2021/03/26 14:05:35;;;;;;;21.60;3.10;;;17.30;1.00;;;;;;5093942;28;20449;-84
2021/03/26 14:08:08;;;;;;;23.93;3.80;;;17.30;1.00;;;;;;5093467;28;20956;-83
2021/03/26 14:10:50;;;;;;;19.60;2.97;;;17.00;1.00;;;;;;5093843;28;20485;-83